Nearby METAR Reports

KBIS - Bismarck, North Dakota, USA
Distance from station: S 10mi, 15km
Updated: Sat, 13-Jul-2024 1:52pm CDT
Partly cloudy
Partly cloudy
 
Temperature: 86°F, 30°C
Heat Index: 89°F, 32°C
Dew Point: 68°F, 20°C
Humidity: 55%
Barometer: 29.94 inHg, 1013.9 hPa
Clouds: Partly cloudy
Visibility: 10 miles, 16 km
Cloud details: Partly cloudy 3500 ft
2024/07/13 18:52 KBIS 131852Z 10SM SCT035 30/20 A2994 RMK AO2 SLP130 T03000200
KDIK - Dickinson, North Dakota, USA
Distance from station: W 95mi, 154km
Updated: Sat, 13-Jul-2024 1:56pm CDT
Clear
Clear
 Wind from NNW
Wind: NNW 10 mph, 17 km/h, Gust: 17 mph, 28 km/h
Temperature: 86°F, 30°C
Heat Index: 88°F, 31°C
Dew Point: 64°F, 18°C
Humidity: 49%
Barometer: 30.01 inHg, 1016.3 hPa
Clouds: Clear
Visibility: 10 miles, 16 km
2024/07/13 18:56 KDIK 131856Z AUTO 34009G15KT 10SM CLR 30/18 A3001 RMK AO2 SLP141 T03000178
 
KGFK - Grand Forks, North Dakota, USA
Distance from station: NNW 76mi, 123km
Updated: Sat, 13-Jul-2024 1:53pm CDT
Mostly cloudy
Mostly cloudy
 Wind from SSE
Wind: SSE 7 mph, 11 km/h
Temperature: 84°F, 29°C
Heat Index: 85°F, 29°C
Dew Point: 64°F, 18°C
Humidity: 51%
Barometer: 29.86 inHg, 1011.2 hPa
Clouds: Mostly cloudy
Visibility: 10 miles, 16 km
Cloud details: Mostly cloudy 12000 ft
Mostly cloudy 17000 ft
2024/07/13 18:53 KGFK 131853Z 15006KT 10SM BKN120 BKN170 29/18 A2986 RMK AO2 RAB26E49 SLP108 VIRGA VCSH P0000 T02890178
KXWA - Williston, North Dakota, USA
Distance from station: NNW 2mi, 2km
Updated: Sat, 13-Jul-2024 1:51pm CDT
Clear
Clear
 Wind from NE
Wind: NE 12 mph, 19 km/h, Gust: 20 mph, 31 km/h
Temperature: 81°F, 27°C
Heat Index: 81°F, 27°C
Dew Point: 57°F, 14°C
Humidity: 45%
Barometer: 30.06 inHg, 1017.9 hPa
Clouds: Clear
Visibility: 10 miles, 16 km
2024/07/13 18:51 KXWA 131851Z AUTO 05010G17KT 10SM CLR 27/14 A3006 RMK AO2 SLP172 T02670139
 
KFAR - Fargo, North Dakota, USA
Distance from station: NNW 4mi, 7km
Updated: Sat, 13-Jul-2024 1:53pm CDT
Partly cloudy
Partly cloudy
 Wind from SE
Wind: SE 8 mph, 13 km/h
Temperature: 86°F, 30°C
Heat Index: 93°F, 34°C
Dew Point: 73°F, 23°C
Humidity: 66%
Barometer: 29.88 inHg, 1011.9 hPa
Clouds: Partly cloudy
Visibility: 10 miles, 16 km
Cloud details: Partly cloudy 2900 ft
2024/07/13 18:53 KFAR 131853Z 14007KT 120V190 10SM SCT029 30/23 A2988 RMK AO2 SLP113 T03000233
KMOT - Minot, North Dakota, USA
Distance from station: E 109mi, 175km
Updated: Sat, 13-Jul-2024 2:09pm CDT
Partly cloudy
Partly cloudy
 Wind from NNW
Wind: NNW 13 mph, 20 km/h
Temperature: 82°F, 28°C
Heat Index: 84°F, 29°C
Dew Point: 66°F, 19°C
Humidity: 58%
Barometer: 29.98 inHg, 1015.2 hPa
Clouds: Partly cloudy
Visibility: 10 miles, 16 km
Cloud details: Partly cloudy 2900 ft
2024/07/13 19:09 KMOT 131909Z 33011KT 10SM SCT029 28/19 A2998 RMK AO2 T02780189